createdAt,value
2024-01-11T00:01:16.730Z,12.43
2024-01-11T00:03:44.836Z,11.57
2024-01-11T00:06:13.360Z,10.00
2024-01-11T00:08:41.441Z,11.57
2024-01-11T00:11:09.468Z,11.50
2024-01-11T00:13:37.557Z,10.10
2024-01-11T00:16:07.245Z,9.90
2024-01-11T00:18:35.261Z,11.97
2024-01-11T00:21:03.289Z,11.40
2024-01-11T00:23:31.289Z,10.70
2024-01-11T00:26:00.514Z,9.47
2024-01-11T00:28:28.582Z,10.83
2024-01-11T00:30:56.658Z,9.20
2024-01-11T00:33:26.112Z,11.43
2024-01-11T00:35:54.191Z,12.43
2024-01-11T00:38:22.330Z,11.20
2024-01-11T00:40:50.416Z,9.93
2024-01-11T00:43:18.534Z,12.73
2024-01-11T00:45:47.365Z,10.83
2024-01-11T00:48:15.517Z,9.77
2024-01-11T00:50:45.102Z,10.80
2024-01-11T00:53:15.469Z,10.70
2024-01-11T00:55:44.346Z,8.20
2024-01-11T00:58:12.320Z,12.07
2024-01-11T01:00:40.357Z,10.43
2024-01-11T01:03:08.652Z,11.03
2024-01-11T01:05:36.825Z,13.37
2024-01-11T01:08:06.744Z,12.73
2024-01-11T01:10:34.715Z,16.20
2024-01-11T01:13:02.660Z,16.57
2024-01-11T01:15:30.799Z,13.13
2024-01-11T01:17:59.192Z,13.67
2024-01-11T01:20:27.371Z,13.87
2024-01-11T01:22:55.338Z,14.60
2024-01-11T01:25:24.915Z,12.43
2024-01-11T01:27:52.903Z,14.90
2024-01-11T01:30:22.435Z,14.50
2024-01-11T01:32:50.565Z,13.07
2024-01-11T01:35:18.708Z,13.50
2024-01-11T01:37:46.801Z,11.17
2024-01-11T01:40:15.347Z,12.10
2024-01-11T01:42:46.037Z,13.53
2024-01-11T01:45:14.539Z,14.80
2024-01-11T01:47:43.760Z,10.73
2024-01-11T01:50:13.519Z,12.30
2024-01-11T01:52:44.791Z,9.87
2024-01-11T01:55:16.772Z,12.70
2024-01-11T01:57:47.840Z,10.63
2024-01-11T02:00:16.566Z,11.03
2024-01-11T02:02:47.042Z,13.87
2024-01-11T02:05:16.492Z,11.60
2024-01-11T02:07:45.218Z,11.73
2024-01-11T02:10:13.841Z,14.00
2024-01-11T02:12:43.486Z,10.17
2024-01-11T02:15:12.989Z,12.97
2024-01-11T02:17:43.316Z,12.73
2024-01-11T02:20:13.046Z,11.43
2024-01-11T02:22:44.072Z,12.43
2024-01-11T02:25:13.594Z,12.33
2024-01-11T02:27:51.898Z,14.40
2024-01-11T02:30:20.375Z,11.53
2024-01-11T02:32:50.625Z,13.30
2024-01-11T02:35:20.374Z,10.10
2024-01-11T02:37:49.524Z,13.07
2024-01-11T02:40:20.819Z,13.37
2024-01-11T02:42:48.964Z,10.53
2024-01-11T02:45:17.208Z,10.37
2024-01-11T02:47:45.223Z,11.93
2024-01-11T02:50:13.946Z,12.23
2024-01-11T02:52:42.019Z,11.90
2024-01-11T02:55:10.495Z,10.97
2024-01-11T02:57:39.914Z,12.67
2024-01-11T03:00:09.017Z,10.47
2024-01-11T03:02:37.196Z,11.27
2024-01-11T03:05:05.706Z,10.43
2024-01-11T03:07:34.261Z,9.17
2024-01-11T03:10:02.562Z,9.40
2024-01-11T03:12:30.603Z,10.37
2024-01-11T03:15:00.301Z,12.87
2024-01-11T03:17:28.285Z,10.60
2024-01-11T03:19:56.432Z,10.87
2024-01-11T03:22:24.433Z,11.97
2024-01-11T03:24:52.414Z,12.97
2024-01-11T03:27:20.594Z,13.10
2024-01-11T03:29:48.548Z,10.30
2024-01-11T03:32:18.037Z,7.70
2024-01-11T03:34:46.214Z,8.80
2024-01-11T03:37:14.189Z,7.73
2024-01-11T03:39:42.286Z,8.40
2024-01-11T03:42:10.266Z,10.07
2024-01-11T03:44:39.474Z,7.83
2024-01-11T03:47:07.644Z,6.83
2024-01-11T03:49:37.096Z,5.30
2024-01-11T03:52:05.547Z,5.90
2024-01-11T03:54:33.682Z,5.77
2024-01-11T03:57:01.865Z,5.50
2024-01-11T03:59:29.876Z,5.37
2024-01-11T04:01:58.018Z,7.33
2024-01-11T04:04:26.104Z,7.20
2024-01-11T04:06:55.401Z,6.10
2024-01-11T04:09:23.341Z,6.47
2024-01-11T04:11:51.364Z,5.27
2024-01-11T04:14:19.337Z,5.57
2024-01-11T04:16:47.556Z,5.40
2024-01-11T04:19:16.299Z,5.83
2024-01-11T04:21:45.325Z,5.30
2024-01-11T04:24:14.667Z,6.20
2024-01-11T04:26:42.719Z,4.57
2024-01-11T04:29:10.777Z,5.23
2024-01-11T04:31:38.971Z,4.93
2024-01-11T04:34:07.070Z,4.13
2024-01-11T04:36:35.188Z,4.20
2024-01-11T04:39:03.191Z,4.93
2024-01-11T04:41:32.574Z,4.30
2024-01-11T04:44:00.618Z,4.30
2024-01-11T04:46:28.672Z,3.80
2024-01-11T04:48:56.767Z,5.47
2024-01-11T04:51:24.802Z,4.83
2024-01-11T04:53:52.828Z,4.43
2024-01-11T04:56:20.820Z,3.17
2024-01-11T04:58:50.257Z,3.77
2024-01-11T05:01:19.239Z,4.33
2024-01-11T05:03:48.443Z,3.90
2024-01-11T05:06:20.565Z,3.50
2024-01-11T05:08:49.247Z,4.03
2024-01-11T05:11:20.470Z,3.77
2024-01-11T05:13:50.696Z,4.17
2024-01-11T05:16:23.806Z,3.47
2024-01-11T05:18:52.526Z,2.83
2024-01-11T05:21:20.885Z,3.43
2024-01-11T05:23:49.705Z,2.87
2024-01-11T05:26:19.101Z,3.33
2024-01-11T05:28:47.276Z,3.53
2024-01-11T05:31:18.794Z,3.07
2024-01-11T05:33:48.057Z,2.70
2024-01-11T05:36:17.268Z,4.13
2024-01-11T05:38:45.411Z,3.87
2024-01-11T05:41:13.527Z,3.40
2024-01-11T05:43:43.725Z,3.57
2024-01-11T05:46:11.761Z,4.07
2024-01-11T05:48:41.308Z,3.43
2024-01-11T05:51:10.703Z,4.33
2024-01-11T05:53:39.235Z,3.97
2024-01-11T05:56:10.320Z,4.23
2024-01-11T05:58:39.153Z,4.20
2024-01-11T06:01:07.435Z,4.27
2024-01-11T06:03:36.086Z,4.50
2024-01-11T06:06:06.421Z,3.90
2024-01-11T06:08:34.486Z,3.93
2024-01-11T06:11:02.585Z,3.87
2024-01-11T06:13:30.597Z,4.33
2024-01-11T06:15:58.805Z,3.97
2024-01-11T06:18:27.097Z,4.37
2024-01-11T06:20:55.246Z,5.30
2024-01-11T06:23:26.791Z,3.77
2024-01-11T06:25:54.869Z,4.87
2024-01-11T06:28:22.953Z,5.17
2024-01-11T06:30:51.268Z,4.20
2024-01-11T06:33:19.474Z,5.30
2024-01-11T06:35:47.662Z,3.93
2024-01-11T06:38:15.954Z,4.93
2024-01-11T06:40:45.418Z,4.47
2024-01-11T06:43:13.642Z,4.67
2024-01-11T06:45:41.601Z,3.60
2024-01-11T06:48:09.777Z,4.87
2024-01-11T06:50:37.888Z,3.80
2024-01-11T06:53:06.101Z,3.77
2024-01-11T06:55:34.149Z,4.00
2024-01-11T06:58:04.068Z,5.37
2024-01-11T07:00:32.163Z,4.83
2024-01-11T07:03:00.363Z,4.63
2024-01-11T07:05:28.431Z,3.83
2024-01-11T07:07:56.564Z,4.90
2024-01-11T07:10:24.619Z,3.97
2024-01-11T07:12:52.706Z,3.97
2024-01-11T07:15:22.232Z,4.80
2024-01-11T07:17:50.492Z,3.90
2024-01-11T07:20:20.126Z,5.70
2024-01-11T07:22:48.238Z,5.17
2024-01-11T07:25:16.372Z,5.17
2024-01-11T07:27:44.590Z,5.10
2024-01-11T07:30:14.028Z,5.57
2024-01-11T07:32:44.072Z,4.00
2024-01-11T07:35:16.486Z,6.00
2024-01-11T07:37:47.003Z,5.90
2024-01-11T07:40:15.180Z,4.60
2024-01-11T07:42:44.069Z,6.17
2024-01-11T07:45:12.779Z,7.03
2024-01-11T07:47:41.561Z,5.70
2024-01-11T07:50:11.916Z,6.13
2024-01-11T07:52:42.414Z,4.57
2024-01-11T07:55:13.689Z,5.90
2024-01-11T07:57:42.471Z,5.90
2024-01-11T08:00:11.404Z,6.47
2024-01-11T08:02:40.344Z,7.33
2024-01-11T08:05:10.682Z,6.20
2024-01-11T08:07:38.855Z,6.50
2024-01-11T08:10:08.245Z,6.27
2024-01-11T08:12:36.298Z,6.27
2024-01-11T08:15:04.350Z,6.10
2024-01-11T08:17:32.553Z,6.10
2024-01-11T08:20:00.848Z,7.63
2024-01-11T08:22:34.872Z,7.13
2024-01-11T08:25:03.223Z,6.83
2024-01-11T08:27:31.230Z,8.30
2024-01-11T08:30:01.337Z,6.33
2024-01-11T08:32:32.202Z,7.73
2024-01-11T08:35:01.215Z,8.77
2024-01-11T08:37:30.811Z,8.27
2024-01-11T08:39:58.902Z,7.57
2024-01-11T08:42:26.887Z,8.87
2024-01-11T08:44:56.007Z,7.30
2024-01-11T08:47:24.834Z,10.50
2024-01-11T08:49:52.948Z,7.00
2024-01-11T08:52:21.110Z,7.63
2024-01-11T08:54:50.504Z,6.07
2024-01-11T08:57:18.628Z,6.57
2024-01-11T08:59:46.782Z,6.33
2024-01-11T09:02:20.529Z,7.00
2024-01-11T09:04:50.046Z,4.23
2024-01-11T09:07:18.156Z,6.67
2024-01-11T09:09:53.610Z,7.60
2024-01-11T09:12:26.205Z,6.47
2024-01-11T09:14:57.196Z,8.10
2024-01-11T09:17:25.337Z,7.67
2024-01-11T09:19:54.135Z,7.20
2024-01-11T09:22:22.211Z,8.00
2024-01-11T09:24:50.264Z,8.47
2024-01-11T09:27:18.202Z,7.13
2024-01-11T09:29:48.046Z,8.00
2024-01-11T09:32:16.223Z,7.17
2024-01-11T09:34:46.520Z,8.60
2024-01-11T09:37:14.789Z,7.93
2024-01-11T09:39:43.718Z,7.70
2024-01-11T09:42:12.312Z,7.20
2024-01-11T09:44:41.270Z,7.90
2024-01-11T09:47:16.059Z,7.27
2024-01-11T09:49:46.751Z,7.17
2024-01-11T09:52:16.258Z,8.83
2024-01-11T09:54:44.500Z,7.63
2024-01-11T09:57:12.437Z,9.13
2024-01-11T09:59:41.362Z,7.90
2024-01-11T10:02:13.525Z,7.40
2024-01-11T10:04:44.462Z,6.67
2024-01-11T10:07:12.755Z,7.50
2024-01-11T10:09:40.820Z,7.30
2024-01-11T10:12:10.295Z,8.30
2024-01-11T10:14:38.428Z,6.07
2024-01-11T10:17:06.622Z,7.27
2024-01-11T10:19:36.099Z,10.40
2024-01-11T10:22:05.986Z,10.07
2024-01-11T10:24:36.408Z,8.00
2024-01-11T10:27:05.126Z,9.53
2024-01-11T10:29:34.142Z,9.33
2024-01-11T10:32:02.243Z,8.53
2024-01-11T10:34:30.276Z,8.03
2024-01-11T10:36:59.946Z,9.53
2024-01-11T10:39:29.082Z,8.97
2024-01-11T10:42:07.724Z,7.80
2024-01-11T10:44:37.611Z,9.53
2024-01-11T10:47:08.473Z,8.37
2024-01-11T10:49:41.446Z,9.17
2024-01-11T10:52:14.092Z,8.60
2024-01-11T10:54:43.962Z,7.73
2024-01-11T10:57:12.387Z,7.80
2024-01-11T10:59:44.562Z,7.97
2024-01-11T11:02:15.954Z,8.17
2024-01-11T11:04:45.905Z,8.87
2024-01-11T11:07:17.784Z,7.50
2024-01-11T11:09:47.195Z,8.53
2024-01-11T11:12:16.358Z,6.30
2024-01-11T11:14:46.189Z,10.53
2024-01-11T11:17:16.576Z,7.77
2024-01-11T11:19:44.919Z,10.30
2024-01-11T11:22:17.195Z,9.77
2024-01-11T11:24:45.711Z,13.17
2024-01-11T11:27:15.958Z,8.90
2024-01-11T11:29:49.060Z,9.43
2024-01-11T11:32:17.783Z,8.90
2024-01-11T11:34:46.801Z,9.97
2024-01-11T11:37:25.186Z,8.83
2024-01-11T11:39:53.261Z,10.10
2024-01-11T11:42:24.331Z,13.85
2024-01-11T11:44:53.371Z,8.53
2024-01-11T11:47:23.725Z,9.30
2024-01-11T11:50:07.376Z,10.80
2024-01-11T11:52:39.098Z,11.33
2024-01-11T11:55:09.175Z,10.60
2024-01-11T11:57:37.839Z,11.07
2024-01-11T12:00:07.552Z,9.43
2024-01-11T12:02:37.310Z,9.90
2024-01-11T12:05:06.612Z,10.30
2024-01-11T12:07:36.453Z,12.23
2024-01-11T12:10:04.811Z,9.53
2024-01-11T12:12:33.173Z,9.47
2024-01-11T12:15:01.367Z,10.33
2024-01-11T12:17:29.574Z,10.27
2024-01-11T12:19:57.724Z,9.43
2024-01-11T12:22:26.395Z,9.37
2024-01-11T12:24:55.839Z,10.00
2024-01-11T12:27:24.053Z,11.53
2024-01-11T12:29:56.622Z,12.43
2024-01-11T12:32:28.336Z,12.93
2024-01-11T12:34:56.737Z,10.90
2024-01-11T12:37:25.018Z,13.80
2024-01-11T12:40:00.936Z,10.80
2024-01-11T12:42:29.418Z,11.20
2024-01-11T12:44:59.540Z,10.60
2024-01-11T12:47:28.354Z,10.90
2024-01-11T12:49:57.298Z,10.23
2024-01-11T12:52:28.209Z,12.43
2024-01-11T12:54:57.840Z,10.80
2024-01-11T12:57:27.927Z,13.53
2024-01-11T12:59:55.971Z,10.33
2024-01-11T13:02:24.481Z,9.67
2024-01-11T13:04:53.190Z,13.83
2024-01-11T13:07:24.094Z,12.33
2024-01-11T13:09:52.092Z,12.60
2024-01-11T13:12:22.006Z,10.50
2024-01-11T13:14:52.144Z,18.47
2024-01-11T13:17:21.426Z,13.93
2024-01-11T13:19:49.543Z,12.40
2024-01-11T13:22:17.573Z,12.20
2024-01-11T13:24:45.615Z,13.47
2024-01-11T13:27:13.695Z,11.53
2024-01-11T13:29:41.630Z,11.20
2024-01-11T13:32:11.761Z,9.27
2024-01-11T13:34:40.769Z,13.30
2024-01-11T13:37:08.911Z,11.07
2024-01-11T13:39:36.866Z,12.00
2024-01-11T13:42:10.260Z,12.87
2024-01-11T13:44:38.395Z,12.93
2024-01-11T13:47:06.518Z,11.30
2024-01-11T13:49:36.048Z,13.00
2024-01-11T13:52:05.692Z,10.90
2024-01-11T13:54:33.793Z,10.57
2024-01-11T13:57:03.770Z,9.80
2024-01-11T13:59:31.757Z,10.20
2024-01-11T14:01:59.726Z,13.07
2024-01-11T14:04:27.721Z,11.87
2024-01-11T14:06:57.389Z,11.37
2024-01-11T14:09:25.545Z,10.67
2024-01-11T14:11:53.608Z,12.07
2024-01-11T14:14:21.815Z,11.33
2024-01-11T14:16:50.370Z,12.90
2024-01-11T14:19:18.482Z,11.57
2024-01-11T14:21:46.582Z,11.63
2024-01-11T14:24:20.320Z,11.40
2024-01-11T14:26:51.747Z,9.47
2024-01-11T14:29:19.823Z,11.97
2024-01-11T14:31:48.111Z,12.10
2024-01-11T14:34:16.330Z,9.37
2024-01-11T14:36:44.363Z,11.43
2024-01-11T14:39:12.275Z,11.57
2024-01-11T14:41:41.651Z,13.03
2024-01-11T14:44:10.727Z,9.57
2024-01-11T14:46:38.822Z,11.03
2024-01-11T14:49:09.153Z,10.03
2024-01-11T14:51:38.481Z,11.07
2024-01-11T14:54:06.649Z,11.57
2024-01-11T14:56:36.695Z,11.70
2024-01-11T14:59:06.107Z,10.20
2024-01-11T15:01:34.583Z,11.03
2024-01-11T15:04:02.603Z,10.70
2024-01-11T15:06:30.655Z,9.57
2024-01-11T15:08:58.786Z,11.83
2024-01-11T15:11:26.770Z,8.60
2024-01-11T15:13:54.938Z,9.10
2024-01-11T15:16:24.340Z,9.30
2024-01-11T15:18:52.363Z,10.73
2024-01-11T15:21:20.558Z,10.03
2024-01-11T15:23:48.600Z,9.83
2024-01-11T15:26:16.769Z,9.37
2024-01-11T15:28:44.885Z,9.10
2024-01-11T15:31:13.157Z,9.53
2024-01-11T15:33:42.912Z,9.47
2024-01-11T15:36:11.269Z,9.07
2024-01-11T15:38:39.272Z,10.03
2024-01-11T15:41:07.314Z,10.40
2024-01-11T15:43:35.304Z,9.87
2024-01-11T15:46:03.711Z,9.83
2024-01-11T15:48:32.003Z,9.20
2024-01-11T15:51:02.403Z,9.83
2024-01-11T15:53:32.047Z,11.67
2024-01-11T15:56:00.020Z,9.50
2024-01-11T15:58:28.124Z,9.73
2024-01-11T16:00:56.197Z,9.83
2024-01-11T16:03:24.901Z,10.63
2024-01-11T16:05:52.987Z,12.13
2024-01-11T16:08:22.415Z,9.83
2024-01-11T16:10:50.513Z,10.03
2024-01-11T16:13:18.875Z,10.93
2024-01-11T16:15:47.115Z,10.70
2024-01-11T16:18:15.897Z,14.87
2024-01-11T16:20:44.411Z,11.83
2024-01-11T16:23:12.487Z,15.60
2024-01-11T16:25:41.817Z,10.57
2024-01-11T16:28:09.857Z,14.37
2024-01-11T16:30:37.919Z,12.73
2024-01-11T16:33:06.401Z,13.57
2024-01-11T16:35:41.451Z,12.57
2024-01-11T16:38:17.527Z,12.80
2024-01-11T16:40:46.917Z,14.03
2024-01-11T16:43:14.974Z,11.57
2024-01-11T16:45:42.970Z,10.50
2024-01-11T16:48:17.873Z,11.93
2024-01-11T16:50:46.662Z,11.33
2024-01-11T16:53:14.641Z,13.17
2024-01-11T16:55:42.857Z,14.20
2024-01-11T16:58:12.636Z,11.90
2024-01-11T17:00:41.224Z,8.77
2024-01-11T17:03:10.949Z,13.10
2024-01-11T17:05:39.054Z,10.73
2024-01-11T17:08:07.504Z,9.97
2024-01-11T17:10:37.979Z,10.47
2024-01-11T17:13:06.151Z,12.33
2024-01-11T17:15:35.562Z,15.97
2024-01-11T17:18:03.693Z,12.10
2024-01-11T17:20:32.992Z,13.17
2024-01-11T17:23:01.029Z,15.17
2024-01-11T17:25:28.980Z,13.17
2024-01-11T17:27:57.151Z,15.87
2024-01-11T17:30:25.222Z,12.47
2024-01-11T17:32:56.448Z,14.53
2024-01-11T17:35:24.730Z,13.90
2024-01-11T17:37:52.644Z,11.20
2024-01-11T17:40:20.642Z,12.43
2024-01-11T17:42:48.848Z,12.20
2024-01-11T17:45:17.110Z,12.43
2024-01-11T17:47:45.926Z,11.87
2024-01-11T17:50:16.410Z,10.80
2024-01-11T17:52:47.086Z,13.90
2024-01-11T17:55:16.104Z,11.67
2024-01-11T17:57:44.189Z,12.10
2024-01-11T18:00:13.793Z,15.53
2024-01-11T18:02:42.048Z,12.37
2024-01-11T18:05:11.246Z,13.40
2024-01-11T18:07:40.971Z,17.00
2024-01-11T18:10:09.757Z,18.00
2024-01-11T18:12:37.781Z,13.13
2024-01-11T18:15:06.626Z,11.03
2024-01-11T18:17:36.519Z,11.57
2024-01-11T18:20:06.245Z,11.90
2024-01-11T18:22:34.978Z,10.43
2024-01-11T18:25:04.423Z,11.40
2024-01-11T18:27:32.601Z,11.43
2024-01-11T18:30:00.837Z,11.10
2024-01-11T18:32:29.080Z,8.97
2024-01-11T18:34:58.560Z,9.20
2024-01-11T18:37:27.558Z,10.37
2024-01-11T18:39:56.062Z,9.77
2024-01-11T18:42:26.165Z,11.03
2024-01-11T18:44:54.707Z,9.60
2024-01-11T18:47:23.101Z,11.93
2024-01-11T18:49:51.115Z,9.57
2024-01-11T18:52:19.199Z,12.13
2024-01-11T18:54:53.575Z,9.23
2024-01-11T18:57:22.405Z,12.77
2024-01-11T18:59:52.173Z,14.93
2024-01-11T19:02:20.319Z,10.23
2024-01-11T19:04:49.124Z,11.10
2024-01-11T19:07:18.037Z,12.80
2024-01-11T19:09:46.292Z,13.30
2024-01-11T19:12:14.375Z,11.67
2024-01-11T19:14:42.445Z,13.10
2024-01-11T19:17:11.819Z,13.33
2024-01-11T19:19:39.890Z,12.77
2024-01-11T19:22:08.145Z,11.97
2024-01-11T19:24:38.840Z,12.67
2024-01-11T19:27:07.458Z,11.37
2024-01-11T19:29:35.470Z,10.63
2024-01-11T19:32:03.456Z,9.70
2024-01-11T19:34:32.856Z,11.40
2024-01-11T19:37:01.060Z,9.13
2024-01-11T19:39:29.044Z,13.47
2024-01-11T19:41:57.162Z,12.33
2024-01-11T19:44:28.473Z,11.87
2024-01-11T19:46:56.977Z,14.30
2024-01-11T19:49:25.163Z,16.43
2024-01-11T19:51:54.691Z,16.93
2024-01-11T19:54:22.606Z,16.80
2024-01-11T19:56:50.600Z,18.70
2024-01-11T19:59:19.299Z,17.17
2024-01-11T20:01:47.376Z,15.70
2024-01-11T20:04:15.505Z,14.73
2024-01-11T20:06:44.529Z,15.50
2024-01-11T20:09:16.475Z,14.90
2024-01-11T20:11:44.813Z,14.77
2024-01-11T20:14:13.557Z,14.70
2024-01-11T20:16:41.736Z,15.27
2024-01-11T20:19:10.018Z,13.97
2024-01-11T20:21:38.304Z,16.10
2024-01-11T20:24:07.326Z,14.27
2024-01-11T20:26:37.366Z,13.20
2024-01-11T20:29:05.483Z,14.10
2024-01-11T20:31:34.652Z,15.10
2024-01-11T20:34:03.654Z,12.57
2024-01-11T20:36:32.037Z,15.07
2024-01-11T20:39:00.536Z,12.33
2024-01-11T20:41:28.654Z,10.93
2024-01-11T20:43:58.154Z,9.70
2024-01-11T20:46:26.631Z,12.73
2024-01-11T20:48:54.821Z,10.67
2024-01-11T20:51:23.427Z,10.50
2024-01-11T20:53:56.297Z,10.23
2024-01-11T20:56:24.986Z,11.60
2024-01-11T20:58:53.203Z,11.43
2024-01-11T21:01:22.998Z,13.23
2024-01-11T21:03:51.332Z,14.17
2024-01-11T21:06:19.692Z,11.30
2024-01-11T21:08:48.088Z,10.93
2024-01-11T21:11:21.687Z,10.17
2024-01-11T21:13:49.924Z,14.90
2024-01-11T21:16:18.131Z,13.93
2024-01-11T21:18:49.875Z,16.00
2024-01-11T21:21:19.007Z,14.00
2024-01-11T21:23:47.015Z,15.13
2024-01-11T21:26:15.133Z,11.93
2024-01-11T21:28:43.054Z,15.37
2024-01-11T21:31:11.068Z,12.73
2024-01-11T21:33:44.745Z,12.80
2024-01-11T21:36:14.094Z,12.13
2024-01-11T21:38:42.016Z,10.83
2024-01-11T21:41:10.088Z,14.07
2024-01-11T21:43:38.061Z,13.23
2024-01-11T21:46:08.757Z,13.17
2024-01-11T21:48:36.929Z,11.63
2024-01-11T21:51:05.592Z,10.23
2024-01-11T21:53:36.083Z,12.53
2024-01-11T21:56:04.467Z,12.97
2024-01-11T21:58:34.107Z,12.90
2024-01-11T22:01:02.196Z,11.63
2024-01-11T22:03:30.413Z,13.30
2024-01-11T22:05:59.041Z,11.73
2024-01-11T22:08:27.133Z,11.47
2024-01-11T22:10:57.106Z,13.63
2024-01-11T22:13:26.045Z,11.97
2024-01-11T22:15:54.007Z,13.07
2024-01-11T22:18:22.409Z,13.80
2024-01-11T22:20:50.559Z,13.27
2024-01-11T22:23:18.736Z,13.30
2024-01-11T22:25:46.674Z,12.60
2024-01-11T22:28:18.157Z,12.57
2024-01-11T22:30:46.342Z,13.20
2024-01-11T22:33:24.861Z,13.03
2024-01-11T22:35:52.916Z,13.13
2024-01-11T22:38:19.861Z,14.00
2024-01-11T22:40:48.842Z,12.63
2024-01-11T22:43:18.218Z,11.23
2024-01-11T22:45:46.347Z,12.43
2024-01-11T22:48:14.556Z,11.27
2024-01-11T22:50:42.552Z,12.40
2024-01-11T22:53:10.610Z,13.10
2024-01-11T22:55:38.679Z,10.30
2024-01-11T22:58:06.609Z,12.80
2024-01-11T23:00:36.658Z,13.07
2024-01-11T23:03:04.826Z,11.97
2024-01-11T23:05:34.695Z,11.43
2024-01-11T23:08:02.659Z,11.83
2024-01-11T23:10:31.548Z,12.80
2024-01-11T23:12:59.519Z,13.60
2024-01-11T23:15:27.416Z,11.70
2024-01-11T23:17:56.831Z,11.83
2024-01-11T23:20:24.793Z,10.43
2024-01-11T23:22:52.682Z,11.17
2024-01-11T23:25:20.775Z,11.67
2024-01-11T23:27:48.672Z,11.03
2024-01-11T23:30:16.866Z,10.93
2024-01-11T23:32:44.921Z,11.07
2024-01-11T23:35:14.276Z,10.87
2024-01-11T23:37:42.180Z,12.70
2024-01-11T23:40:11.202Z,12.20
2024-01-11T23:42:39.113Z,11.43
2024-01-11T23:45:07.985Z,13.13
2024-01-11T23:47:36.843Z,11.80
2024-01-11T23:50:05.205Z,10.40
2024-01-11T23:52:34.506Z,9.63
2024-01-11T23:55:02.418Z,11.57
2024-01-11T23:57:30.457Z,11.33
2024-01-11T23:59:58.454Z,11.57
